createdAt,value
2022-08-01T04:27:50.100Z,100132.03
2022-08-01T04:31:01.425Z,100132.03
2022-08-01T04:34:06.797Z,100132.88
2022-08-01T04:37:12.308Z,100122.78
2022-08-01T04:40:17.458Z,100133.00
2022-08-01T04:43:20.423Z,100136.78
2022-08-01T04:46:23.586Z,100131.16
2022-08-01T04:49:26.483Z,100138.22
2022-08-01T04:52:39.294Z,100142.88
2022-08-01T04:55:44.835Z,100140.41
2022-08-01T04:58:47.852Z,100141.53
2022-08-01T05:02:01.197Z,100139.94
2022-08-01T05:05:04.072Z,100140.94
2022-08-01T05:08:07.296Z,100141.03
2022-08-01T05:11:10.014Z,100140.31
2022-08-01T05:14:12.760Z,100134.97
2022-08-01T05:17:15.259Z,100133.97
2022-08-01T05:20:19.031Z,100134.66
2022-08-01T05:23:36.614Z,100132.81
2022-08-01T05:26:57.718Z,100143.13
2022-08-01T05:30:00.222Z,100144.44
2022-08-01T05:33:03.052Z,100143.62
2022-08-01T05:36:05.857Z,100137.81
2022-08-01T05:39:08.775Z,100136.41
2022-08-01T05:42:11.228Z,100134.88
2022-08-01T05:45:14.005Z,100139.38
2022-08-01T05:48:16.669Z,100141.94
2022-08-01T05:51:19.795Z,100140.28
2022-08-01T05:54:22.324Z,100150.22
2022-08-01T05:57:25.067Z,100146.53
2022-08-01T06:00:27.682Z,100144.59
2022-08-01T06:03:32.278Z,100150.88
2022-08-01T06:06:37.206Z,100144.22
2022-08-01T06:09:39.929Z,100148.78
2022-08-01T06:12:42.428Z,100143.28
2022-08-01T06:15:45.282Z,100148.63
2022-08-01T06:18:48.051Z,100147.72
2022-08-01T06:21:54.255Z,100145.19
2022-08-01T06:36:05.435Z,100136.31
2022-08-01T06:39:08.308Z,100132.47
2022-08-01T06:42:10.988Z,100146.81
2022-08-01T06:45:15.051Z,100146.06
2022-08-01T06:48:17.522Z,100146.16
2022-08-01T06:51:21.766Z,100148.72
2022-08-01T06:54:26.685Z,100149.41
2022-08-01T06:57:29.722Z,100161.25
2022-08-01T07:00:32.993Z,100155.75
2022-08-01T07:03:54.527Z,100145.44
2022-08-01T07:06:58.518Z,100147.16
2022-08-01T07:10:01.823Z,100150.28
2022-08-01T07:13:05.930Z,100136.13
2022-08-01T07:16:08.668Z,100145.00
2022-08-01T07:22:28.759Z,100128.31
2022-08-01T07:25:32.475Z,100122.53
2022-08-01T07:28:35.209Z,100123.47
2022-08-01T07:31:46.930Z,100127.50
2022-08-01T07:34:49.855Z,100123.38
2022-08-01T07:37:54.151Z,100131.47
2022-08-01T07:40:57.854Z,100129.47
2022-08-01T07:44:04.693Z,100125.69
2022-08-01T07:47:07.881Z,100127.78
2022-08-01T07:50:11.194Z,100128.31
2022-08-01T07:53:14.126Z,100127.44
2022-08-01T07:56:16.676Z,100132.53
2022-08-01T07:59:24.055Z,100124.53
2022-08-01T08:02:29.051Z,100119.13
2022-08-01T08:05:58.423Z,100118.44
2022-08-01T08:08:56.791Z,100119.09
2022-08-01T08:11:59.930Z,100112.78
2022-08-01T08:53:37.364Z,100173.34
2022-08-01T08:56:40.842Z,100170.97
2022-08-01T08:59:47.516Z,100178.63
2022-08-01T09:02:50.441Z,100181.44
2022-08-01T09:05:53.192Z,100178.44
2022-08-01T09:08:56.131Z,100179.72
2022-08-01T09:15:51.174Z,100172.47
2022-08-01T09:19:15.888Z,100186.37
2022-08-01T09:22:23.865Z,100185.66
2022-08-01T09:25:46.183Z,100185.19
2022-08-01T09:28:50.547Z,100178.00
2022-08-01T09:31:53.741Z,100176.09
2022-08-01T09:34:57.247Z,100175.06
2022-08-01T09:38:22.217Z,100171.63
2022-08-01T09:41:37.680Z,100171.81
2022-08-01T09:44:54.550Z,100170.13
2022-08-01T09:47:57.918Z,100169.91
2022-08-01T09:51:07.193Z,100162.16
2022-08-01T09:54:12.363Z,100161.75
2022-08-01T09:57:17.465Z,100163.94
2022-08-01T10:00:44.224Z,100161.59
2022-08-01T10:04:15.737Z,100168.66
2022-08-01T10:07:20.158Z,100163.72
2022-08-01T10:10:32.268Z,100162.56
2022-08-01T10:13:36.972Z,100163.00
2022-08-01T10:16:40.370Z,100172.00
2022-08-01T10:19:44.621Z,100164.19
2022-08-01T10:22:48.184Z,100165.63
2022-08-01T10:26:04.520Z,100165.38
2022-08-01T10:29:44.923Z,100164.00
2022-08-01T10:32:36.047Z,100157.66
2022-08-01T10:35:46.751Z,100164.09
2022-08-01T10:38:56.991Z,100165.78
2022-08-01T10:42:00.520Z,100153.06
2022-08-01T10:45:14.161Z,100156.94
2022-08-01T10:48:26.491Z,100147.50
2022-08-01T11:00:01.955Z,100142.75
2022-08-01T11:18:11.798Z,100139.31
2022-08-01T11:21:59.001Z,100135.50
2022-08-01T11:28:34.687Z,100128.28
2022-08-01T11:31:39.240Z,100127.00
2022-08-01T11:34:56.456Z,100116.41
2022-08-01T11:38:25.376Z,100122.34
2022-08-01T11:41:37.158Z,100120.19
2022-08-01T11:44:51.749Z,100113.06
2022-08-01T11:47:54.639Z,100112.13
2022-08-01T11:51:02.012Z,100108.28
2022-08-01T11:54:05.085Z,100113.09
2022-08-01T11:57:13.972Z,100111.47
2022-08-01T12:15:37.746Z,100101.31
2022-08-01T12:18:43.366Z,100116.56
2022-08-01T12:21:45.985Z,100104.81
2022-08-01T12:24:49.158Z,100107.78
2022-08-01T12:27:55.958Z,100104.81
2022-08-01T12:30:59.919Z,100113.78
2022-08-01T12:34:27.073Z,100102.69
2022-08-01T12:37:30.590Z,100100.19
2022-08-01T12:40:36.228Z,100096.50
2022-08-01T12:43:39.273Z,100100.03
2022-08-01T12:46:44.558Z,100097.78
2022-08-01T12:49:49.701Z,100087.87
2022-08-01T12:52:53.096Z,100098.66
2022-08-01T12:55:59.243Z,100094.59
2022-08-01T13:02:43.414Z,100093.84
2022-08-01T13:05:56.457Z,100078.00
2022-08-01T13:09:20.228Z,100075.44
2022-08-01T13:12:23.589Z,100075.75
2022-08-01T13:15:35.572Z,100089.84
